createdAt,value
2022-11-21T00:01:54.794Z,99679.44
2022-11-21T00:04:21.399Z,99684.38
2022-11-21T00:06:47.928Z,99685.31
2022-11-21T00:09:14.629Z,99677.81
2022-11-21T00:11:41.123Z,99678.06
2022-11-21T00:14:07.740Z,99673.81
2022-11-21T00:16:34.298Z,99669.53
2022-11-21T00:19:02.966Z,99665.19
2022-11-21T00:21:29.622Z,99661.88
2022-11-21T00:23:56.211Z,99659.47
2022-11-21T00:26:22.794Z,99655.78
2022-11-21T00:28:49.440Z,99655.44
2022-11-21T00:31:24.103Z,99650.97
2022-11-21T00:33:50.826Z,99644.94
2022-11-21T00:36:17.435Z,99643.75
2022-11-21T00:38:44.154Z,99638.06
2022-11-21T00:41:10.827Z,99643.16
2022-11-21T00:43:37.703Z,99638.06
2022-11-21T00:46:04.402Z,99628.72
2022-11-21T00:48:32.210Z,99638.81
2022-11-21T00:51:00.484Z,99622.91
2022-11-21T00:53:27.197Z,99622.00
2022-11-21T00:55:53.840Z,99625.53
2022-11-21T00:58:20.389Z,99626.44
2022-11-21T01:00:47.060Z,99613.75
2022-11-21T01:03:13.650Z,99625.88
2022-11-21T01:05:40.293Z,99615.75
2022-11-21T01:08:06.973Z,99613.03
2022-11-21T01:10:35.521Z,99613.91
2022-11-21T01:13:02.424Z,99613.13
2022-11-21T01:15:29.093Z,99606.34
2022-11-21T01:17:55.660Z,99598.78
2022-11-21T01:20:22.246Z,99597.91
2022-11-21T01:22:48.908Z,99592.78
2022-11-21T01:25:15.519Z,99591.97
2022-11-21T01:27:42.014Z,99578.59
2022-11-21T01:30:09.049Z,99592.97
2022-11-21T01:32:35.828Z,99578.34
2022-11-21T01:35:02.406Z,99585.13
2022-11-21T01:37:29.062Z,99575.00
2022-11-21T01:39:55.611Z,99577.50
2022-11-21T01:42:22.270Z,99573.13
2022-11-21T01:44:52.047Z,99576.63
2022-11-21T01:47:19.080Z,99569.84
2022-11-21T01:49:46.996Z,99573.88
2022-11-21T01:52:25.473Z,99570.28
2022-11-21T01:54:56.985Z,99566.66
2022-11-21T01:57:43.958Z,99566.56
2022-11-21T02:00:18.248Z,99567.78
2022-11-21T02:02:51.608Z,99557.72
2022-11-21T02:05:23.280Z,99556.81
2022-11-21T02:07:55.239Z,99550.75
2022-11-21T02:10:22.940Z,99551.66
2022-11-21T02:12:52.137Z,99559.28
2022-11-21T02:15:21.549Z,99546.59
2022-11-21T02:17:48.091Z,99550.66
2022-11-21T02:20:17.705Z,99542.19
2022-11-21T02:23:09.954Z,99544.75
2022-11-21T02:25:39.184Z,99537.06
2022-11-21T02:28:08.387Z,99538.66
2022-11-21T02:30:37.683Z,99535.00
2022-11-21T02:33:04.972Z,99531.22
2022-11-21T02:35:33.744Z,99532.78
2022-11-21T02:38:29.099Z,99527.59
2022-11-21T02:41:01.776Z,99528.34
2022-11-21T02:43:37.594Z,99523.97
2022-11-21T02:46:04.248Z,99511.16
2022-11-21T02:48:30.854Z,99514.50
2022-11-21T02:50:57.417Z,99514.25
2022-11-21T02:53:24.007Z,99508.91
2022-11-21T02:55:50.716Z,99502.84
2022-11-21T02:58:17.351Z,99503.81
2022-11-21T03:00:44.054Z,99488.47
2022-11-21T03:03:11.277Z,99491.28
2022-11-21T03:05:39.557Z,99490.63
2022-11-21T03:08:06.777Z,99493.28
2022-11-21T03:10:33.723Z,99491.44
2022-11-21T03:13:03.160Z,99490.63
2022-11-21T03:15:32.068Z,99491.69
2022-11-21T03:17:58.698Z,99489.53
2022-11-21T03:20:25.540Z,99487.75
2022-11-21T03:22:53.564Z,99478.34
2022-11-21T03:25:20.932Z,99482.66
2022-11-21T03:27:50.971Z,99478.53
2022-11-21T03:30:17.669Z,99472.88
2022-11-21T03:32:44.314Z,99473.91
2022-11-21T03:35:11.731Z,99478.78
2022-11-21T03:37:42.418Z,99472.66
2022-11-21T03:40:09.793Z,99463.09
2022-11-21T03:42:36.425Z,99479.63
2022-11-21T03:45:03.270Z,99465.94
2022-11-21T03:47:29.941Z,99466.97
2022-11-21T03:49:56.518Z,99464.53
2022-11-21T03:52:23.167Z,99463.00
2022-11-21T03:54:49.759Z,99468.56
2022-11-21T03:57:16.395Z,99461.09
2022-11-21T03:59:42.956Z,99472.31
2022-11-21T04:02:09.593Z,99466.31
2022-11-21T04:04:36.132Z,99473.19
2022-11-21T04:07:02.895Z,99471.59
2022-11-21T04:09:29.654Z,99470.78
2022-11-21T04:11:56.244Z,99462.22
2022-11-21T04:14:22.728Z,99458.03
2022-11-21T04:16:49.514Z,99456.44
2022-11-21T04:19:16.178Z,99454.44
2022-11-21T04:21:42.781Z,99448.78
2022-11-21T04:24:09.378Z,99451.50
2022-11-21T04:26:36.018Z,99454.47
2022-11-21T04:29:02.621Z,99449.19
2022-11-21T04:31:29.227Z,99452.34
2022-11-21T04:33:55.794Z,99448.88
2022-11-21T04:36:22.327Z,99447.78
2022-11-21T04:38:48.998Z,99444.38
2022-11-21T04:41:15.590Z,99442.63
2022-11-21T04:43:42.229Z,99442.50
2022-11-21T04:46:08.987Z,99438.13
2022-11-21T04:48:35.664Z,99433.97
2022-11-21T04:51:02.225Z,99435.16
2022-11-21T04:53:28.782Z,99430.88
2022-11-21T04:55:55.369Z,99438.47
2022-11-21T04:58:21.903Z,99441.09
2022-11-21T05:00:48.677Z,99429.22
2022-11-21T05:03:15.519Z,99434.22
2022-11-21T05:05:42.246Z,99427.91
2022-11-21T05:08:08.816Z,99430.13
2022-11-21T05:10:55.411Z,99434.31
2022-11-21T05:13:22.115Z,99434.25
2022-11-21T05:15:51.581Z,99427.22
2022-11-21T05:18:19.980Z,99416.31
2022-11-21T05:20:46.619Z,99422.31
2022-11-21T05:23:13.337Z,99417.38
2022-11-21T05:25:40.344Z,99418.16
2022-11-21T05:28:07.071Z,99417.94
2022-11-21T05:30:33.731Z,99416.00
2022-11-21T05:33:00.463Z,99407.50
2022-11-21T05:35:27.005Z,99413.28
2022-11-21T05:37:59.622Z,99409.69
2022-11-21T05:40:26.841Z,99406.22
2022-11-21T05:43:11.800Z,99416.50
2022-11-21T05:45:38.429Z,99406.59
2022-11-21T05:48:07.935Z,99409.38
2022-11-21T05:50:36.329Z,99411.19
2022-11-21T05:53:04.984Z,99413.97
2022-11-21T05:55:34.101Z,99416.41
2022-11-21T05:58:01.375Z,99410.53
2022-11-21T06:00:28.980Z,99408.91
2022-11-21T06:03:14.224Z,99406.34
2022-11-21T06:05:41.164Z,99403.78
2022-11-21T06:08:07.803Z,99401.34
2022-11-21T06:10:34.527Z,99399.56
2022-11-21T06:13:01.592Z,99398.78
2022-11-21T06:15:28.831Z,99399.69
2022-11-21T06:17:55.453Z,99399.75
2022-11-21T06:20:22.087Z,99397.13
2022-11-21T06:22:48.700Z,99403.09
2022-11-21T06:25:15.356Z,99404.31
2022-11-21T06:27:41.937Z,99411.94
2022-11-21T06:30:08.884Z,99409.38
2022-11-21T06:32:38.629Z,99410.97
2022-11-21T06:35:05.885Z,99411.84
2022-11-21T06:37:32.527Z,99418.22
2022-11-21T06:39:59.661Z,99415.72
2022-11-21T06:42:26.362Z,99412.16
2022-11-21T06:44:53.365Z,99422.56
2022-11-21T06:47:20.401Z,99418.41
2022-11-21T06:49:47.168Z,99411.47
2022-11-21T06:52:13.769Z,99411.53
2022-11-21T06:54:40.448Z,99414.31
2022-11-21T06:57:07.293Z,99408.22
2022-11-21T06:59:34.056Z,99418.34
2022-11-21T07:02:00.760Z,99413.00
2022-11-21T07:04:27.680Z,99416.06
2022-11-21T07:06:54.516Z,99421.78
2022-11-21T07:09:36.410Z,99420.94
2022-11-21T07:12:22.147Z,99421.00
2022-11-21T07:14:48.924Z,99415.00
2022-11-21T07:17:15.784Z,99420.78
2022-11-21T07:19:42.337Z,99424.34
2022-11-21T07:22:09.204Z,99430.31
2022-11-21T07:24:35.791Z,99420.28
2022-11-21T07:27:02.502Z,99425.22
2022-11-21T07:29:29.728Z,99426.25
2022-11-21T07:31:56.645Z,99426.34
2022-11-21T07:34:23.204Z,99424.63
2022-11-21T07:36:49.806Z,99416.72
2022-11-21T07:39:16.630Z,99426.75
2022-11-21T07:41:43.184Z,99425.97
2022-11-21T07:44:09.878Z,99423.22
2022-11-21T07:46:36.491Z,99424.75
2022-11-21T07:49:03.849Z,99421.16
2022-11-21T07:51:30.846Z,99417.38
2022-11-21T07:53:57.405Z,99415.53
2022-11-21T07:56:26.436Z,99420.66
2022-11-21T07:58:53.556Z,99413.59
2022-11-21T08:01:20.249Z,99413.50
2022-11-21T08:03:46.976Z,99413.50
2022-11-21T08:06:13.908Z,99407.44
2022-11-21T08:08:40.473Z,99411.59
2022-11-21T08:11:07.323Z,99413.88
2022-11-21T08:13:35.483Z,99416.50
2022-11-21T08:16:05.359Z,99413.72
2022-11-21T08:18:32.453Z,99419.59
2022-11-21T08:21:02.500Z,99416.03
2022-11-21T08:23:29.150Z,99422.75
2022-11-21T08:25:55.707Z,99427.09
2022-11-21T08:28:22.440Z,99421.81
2022-11-21T08:30:49.390Z,99424.31
2022-11-21T08:33:16.715Z,99421.66
2022-11-21T08:35:43.364Z,99417.47
2022-11-21T08:38:10.098Z,99420.53
2022-11-21T08:40:36.866Z,99418.63
2022-11-21T08:43:08.996Z,99420.94
2022-11-21T08:45:36.959Z,99417.41
2022-11-21T08:48:04.477Z,99424.94
2022-11-21T08:50:32.070Z,99428.19
2022-11-21T08:53:02.250Z,99423.56
2022-11-21T08:55:29.930Z,99420.16
2022-11-21T08:57:56.657Z,99422.06
2022-11-21T09:00:23.531Z,99415.25
2022-11-21T09:02:50.291Z,99421.94
2022-11-21T09:05:16.880Z,99426.94
2022-11-21T09:07:43.575Z,99426.13
2022-11-21T09:10:10.602Z,99430.34
2022-11-21T09:12:37.233Z,99422.78
2022-11-21T09:15:23.007Z,99438.19
2022-11-21T09:18:04.853Z,99434.50
2022-11-21T09:20:34.199Z,99428.59
2022-11-21T09:23:05.974Z,99440.66
2022-11-21T09:25:33.062Z,99440.53
2022-11-21T09:28:01.147Z,99435.78
2022-11-21T09:30:27.798Z,99441.31
2022-11-21T09:32:54.387Z,99448.91
2022-11-21T09:35:21.078Z,99441.69
2022-11-21T09:37:47.677Z,99449.19
2022-11-21T09:40:17.687Z,99444.22
2022-11-21T09:42:52.879Z,99438.84
2022-11-21T09:45:38.432Z,99448.59
2022-11-21T09:48:12.900Z,99438.97
2022-11-21T09:50:47.093Z,99434.75
2022-11-21T09:53:19.014Z,99443.97
2022-11-21T09:56:13.973Z,99440.88
2022-11-21T09:58:49.233Z,99446.16
2022-11-21T10:01:17.224Z,99440.00
2022-11-21T10:03:47.420Z,99446.09
2022-11-21T10:06:26.545Z,99450.75
2022-11-21T10:09:16.448Z,99443.06
2022-11-21T10:12:21.063Z,99447.97
2022-11-21T10:15:09.436Z,99451.19
2022-11-21T10:18:00.861Z,99455.06
2022-11-21T10:20:27.666Z,99455.00
2022-11-21T10:23:09.105Z,99455.16
2022-11-21T10:25:39.950Z,99451.00
2022-11-21T10:28:23.177Z,99458.38
2022-11-21T10:30:52.532Z,99450.28
2022-11-21T10:33:31.649Z,99452.56
2022-11-21T10:36:05.676Z,99452.75
2022-11-21T10:38:38.206Z,99454.41
2022-11-21T10:41:30.522Z,99447.06
2022-11-21T10:44:23.112Z,99452.53
2022-11-21T10:46:57.335Z,99458.41
2022-11-21T10:49:28.985Z,99451.53
2022-11-21T10:52:15.063Z,99450.78
2022-11-21T10:55:02.591Z,99455.72
2022-11-21T10:57:33.092Z,99453.81
2022-11-21T11:00:02.473Z,99444.53
2022-11-21T11:02:29.170Z,99441.38
2022-11-21T11:05:15.971Z,99450.81
2022-11-21T11:07:58.683Z,99447.09
2022-11-21T11:10:28.137Z,99450.94
2022-11-21T11:13:38.867Z,99453.00
2022-11-21T11:16:18.111Z,99454.19
2022-11-21T11:19:11.000Z,99449.34
2022-11-21T11:21:50.660Z,99447.84
2022-11-21T11:24:17.575Z,99449.56
2022-11-21T11:26:48.475Z,99458.13
2022-11-21T11:29:21.080Z,99458.22
2022-11-21T11:32:01.016Z,99451.84
2022-11-21T11:34:40.655Z,99461.88
2022-11-21T11:37:12.754Z,99461.50
2022-11-21T11:40:08.649Z,99456.19
2022-11-21T11:43:21.268Z,99459.97
2022-11-21T11:46:18.915Z,99461.28
2022-11-21T11:49:16.840Z,99467.22
2022-11-21T11:51:42.274Z,99464.00
2022-11-21T11:54:20.015Z,99453.88
2022-11-21T11:56:47.409Z,99456.09
2022-11-21T11:59:31.620Z,99455.47
2022-11-21T12:02:17.508Z,99457.56
2022-11-21T12:04:56.580Z,99463.34
2022-11-21T12:08:33.122Z,99462.88
2022-11-21T12:10:27.585Z,99451.44
2022-11-21T12:13:11.228Z,99459.53
2022-11-21T12:15:49.821Z,99464.75
2022-11-21T12:18:22.347Z,99462.75
2022-11-21T12:21:14.276Z,99452.97
2022-11-21T12:23:58.117Z,99454.25
2022-11-21T12:26:36.344Z,99462.34
2022-11-21T12:29:32.115Z,99464.91
2022-11-21T12:32:04.815Z,99450.28
2022-11-21T12:34:40.561Z,99460.38
2022-11-21T12:37:28.997Z,99456.00
2022-11-21T12:40:00.434Z,99458.34
2022-11-21T12:42:51.441Z,99458.28
2022-11-21T12:45:36.728Z,99451.63
2022-11-21T12:48:40.728Z,99459.03
2022-11-21T12:51:57.133Z,99449.13
2022-11-21T12:54:38.662Z,99447.94
2022-11-21T12:57:11.711Z,99455.63
2022-11-21T12:59:53.527Z,99457.56
2022-11-21T13:02:55.564Z,99466.81
2022-11-21T13:05:27.639Z,99461.34
2022-11-21T13:08:02.327Z,99469.31
2022-11-21T13:10:29.828Z,99465.06
2022-11-21T13:13:23.912Z,99468.41
2022-11-21T13:16:10.474Z,99465.91
2022-11-21T13:18:48.964Z,99471.25
2022-11-21T13:21:53.084Z,99477.91
2022-11-21T13:24:45.144Z,99475.00
2022-11-21T13:27:31.046Z,99465.66
2022-11-21T13:30:07.650Z,99458.78
2022-11-21T13:32:49.893Z,99456.44
2022-11-21T13:35:16.565Z,99447.91
2022-11-21T13:37:49.315Z,99462.50
2022-11-21T13:40:28.482Z,99458.50
2022-11-21T13:43:33.283Z,99467.72
2022-11-21T13:46:01.387Z,99466.19
2022-11-21T13:48:40.222Z,99466.53
2022-11-21T13:51:38.024Z,99464.84
2022-11-21T13:54:26.037Z,99472.56
2022-11-21T13:57:23.877Z,99462.53
2022-11-21T14:00:28.086Z,99473.00
2022-11-21T14:02:57.805Z,99478.38
2022-11-21T14:06:03.759Z,99486.47
2022-11-21T14:08:30.689Z,99489.19
2022-11-21T14:10:58.450Z,99487.31
2022-11-21T14:13:31.591Z,99487.31
2022-11-21T14:16:07.235Z,99495.53
2022-11-21T14:18:35.883Z,99488.19
2022-11-21T14:21:04.417Z,99493.91
2022-11-21T14:23:34.146Z,99487.16
2022-11-21T14:26:12.513Z,99492.25
2022-11-21T14:28:39.324Z,99487.78
2022-11-21T14:31:08.862Z,99500.19
2022-11-21T14:33:40.482Z,99499.69
2022-11-21T14:36:16.458Z,99497.53
2022-11-21T14:39:13.879Z,99489.91
2022-11-21T14:41:39.056Z,99494.75
2022-11-21T14:44:17.011Z,99493.72
2022-11-21T14:46:44.439Z,99497.53
2022-11-21T14:49:16.938Z,99493.97
2022-11-21T14:51:48.169Z,99497.44
2022-11-21T14:54:18.964Z,99486.00
2022-11-21T14:56:56.207Z,99500.38
2022-11-21T14:59:26.171Z,99498.16
2022-11-21T15:02:11.538Z,99492.81
2022-11-21T15:04:38.609Z,99494.97
2022-11-21T15:07:05.278Z,99497.44
2022-11-21T15:12:48.009Z,99507.13
2022-11-21T15:15:36.049Z,99504.47
2022-11-21T15:20:56.369Z,99502.16
2022-11-21T15:23:27.142Z,99510.59
2022-11-21T15:28:54.963Z,99503.31
2022-11-21T15:31:23.403Z,99507.44
2022-11-21T15:34:12.538Z,99502.31
2022-11-21T15:36:40.622Z,99505.44
2022-11-21T15:39:18.982Z,99507.03
2022-11-21T15:41:46.145Z,99508.50
2022-11-21T15:44:13.565Z,99506.91
2022-11-21T15:46:43.801Z,99507.19
2022-11-21T15:52:07.717Z,99505.31
2022-11-21T15:54:36.770Z,99508.03
2022-11-21T15:57:03.401Z,99519.84
2022-11-21T15:57:13.008Z,99509.19
2022-11-21T15:57:14.195Z,99512.72
2022-11-21T15:59:30.266Z,99513.13
2022-11-21T16:01:57.260Z,99517.50
2022-11-21T16:04:25.963Z,99524.91
2022-11-21T16:06:53.909Z,99521.44
2022-11-21T16:09:20.511Z,99524.34
2022-11-21T16:11:47.413Z,99522.09
2022-11-21T16:14:16.054Z,99521.97
2022-11-21T16:16:43.881Z,99522.41
2022-11-21T16:19:14.604Z,99523.69
2022-11-21T16:21:41.834Z,99518.47
2022-11-21T16:24:08.584Z,99519.69
2022-11-21T16:26:35.166Z,99520.84
2022-11-21T16:29:05.370Z,99516.38
2022-11-21T16:31:32.478Z,99509.25
2022-11-21T16:34:00.464Z,99513.84
2022-11-21T16:36:29.100Z,99505.28
2022-11-21T16:39:00.429Z,99516.38
2022-11-21T16:41:30.149Z,99512.50
2022-11-21T16:43:56.783Z,99505.59
2022-11-21T16:46:25.281Z,99509.63
2022-11-21T16:49:02.672Z,99505.25
2022-11-21T16:51:30.080Z,99507.78
2022-11-21T16:53:57.508Z,99512.84
2022-11-21T16:56:24.877Z,99505.47
2022-11-21T16:58:51.423Z,99496.88
2022-11-21T17:01:21.265Z,99497.81
2022-11-21T17:03:49.240Z,99501.94
2022-11-21T17:06:18.526Z,99492.44
2022-11-21T17:08:46.979Z,99499.06
2022-11-21T17:11:18.234Z,99499.56
2022-11-21T17:13:47.116Z,99505.59
2022-11-21T17:16:15.161Z,99503.16
2022-11-21T17:18:41.731Z,99499.44
2022-11-21T17:21:11.230Z,99507.66
2022-11-21T17:23:39.952Z,99510.09
2022-11-21T17:26:08.642Z,99508.81
2022-11-21T17:28:37.941Z,99523.53
2022-11-21T17:31:11.422Z,99528.16
2022-11-21T17:33:38.383Z,99523.44
2022-11-21T17:36:06.909Z,99536.34
2022-11-21T17:38:33.582Z,99540.00
2022-11-21T17:41:04.530Z,99533.13
2022-11-21T17:43:32.465Z,99542.47
2022-11-21T17:46:09.301Z,99538.03
2022-11-21T17:48:38.132Z,99538.69
2022-11-21T17:51:20.370Z,99546.59
2022-11-21T17:53:48.989Z,99558.06
2022-11-21T17:56:17.748Z,99557.53
2022-11-21T17:58:44.922Z,99563.84
2022-11-21T18:01:18.463Z,99553.84
2022-11-21T18:03:47.101Z,99558.63
2022-11-21T18:06:16.177Z,99558.84
2022-11-21T18:08:45.420Z,99559.59
2022-11-21T18:11:14.034Z,99560.91
2022-11-21T18:13:41.064Z,99566.31
2022-11-21T18:16:20.232Z,99561.91
2022-11-21T18:18:47.526Z,99559.09
2022-11-21T18:21:17.176Z,99560.66
2022-11-21T18:23:44.423Z,99564.59
2022-11-21T18:26:16.696Z,99557.13
2022-11-21T18:28:43.947Z,99552.94
2022-11-21T18:31:13.242Z,99551.13
2022-11-21T18:33:40.960Z,99554.84
2022-11-21T18:36:08.696Z,99558.75
2022-11-21T18:38:48.878Z,99555.75
2022-11-21T18:41:18.480Z,99551.56
2022-11-21T18:43:50.727Z,99552.00
2022-11-21T18:46:17.654Z,99548.72
2022-11-21T18:49:02.121Z,99545.97
2022-11-21T18:51:32.109Z,99551.69
2022-11-21T18:54:00.971Z,99557.56
2022-11-21T18:56:27.579Z,99555.75
2022-11-21T18:58:58.595Z,99558.81
2022-11-21T19:01:28.103Z,99561.06
2022-11-21T19:03:55.654Z,99556.53
2022-11-21T19:06:24.393Z,99571.41
2022-11-21T19:08:55.855Z,99571.38
2022-11-21T19:11:24.690Z,99560.22
2022-11-21T19:13:52.515Z,99560.91
2022-11-21T19:16:21.559Z,99558.75
2022-11-21T19:19:11.760Z,99556.63
2022-11-21T19:21:39.771Z,99563.19
2022-11-21T19:24:10.289Z,99561.75
2022-11-21T19:26:36.899Z,99564.44
2022-11-21T19:29:03.601Z,99568.81
2022-11-21T19:31:30.205Z,99565.25
2022-11-21T19:33:58.106Z,99566.56
2022-11-21T19:36:25.148Z,99576.56
2022-11-21T19:38:52.048Z,99569.59
2022-11-21T19:41:22.453Z,99569.09
2022-11-21T19:43:51.374Z,99564.19
2022-11-21T19:46:26.602Z,99566.31
2022-11-21T19:48:55.583Z,99559.72
2022-11-21T19:51:27.589Z,99561.88
2022-11-21T19:53:54.221Z,99555.13
2022-11-21T19:56:23.257Z,99563.88
2022-11-21T19:58:50.424Z,99560.84
2022-11-21T20:01:19.443Z,99568.19
2022-11-21T20:03:47.931Z,99564.72
2022-11-21T20:06:20.065Z,99567.94
2022-11-21T20:08:52.709Z,99569.31
2022-11-21T20:11:20.749Z,99558.97
2022-11-21T20:13:48.695Z,99555.66
2022-11-21T20:16:28.492Z,99564.34
2022-11-21T20:18:57.735Z,99566.22
2022-11-21T20:21:24.368Z,99570.31
2022-11-21T20:23:51.203Z,99565.91
2022-11-21T20:26:19.859Z,99566.69
2022-11-21T20:28:47.189Z,99562.63
2022-11-21T20:31:16.885Z,99566.75
2022-11-21T20:33:46.043Z,99559.31
2022-11-21T20:36:17.316Z,99562.19
2022-11-21T20:38:58.123Z,99569.88
2022-11-21T20:41:27.038Z,99565.94
2022-11-21T20:46:46.127Z,99571.09
2022-11-21T20:49:12.744Z,99572.31
2022-11-21T20:54:27.058Z,99565.19
2022-11-21T20:56:53.812Z,99569.69
2022-11-21T20:59:20.399Z,99574.13
2022-11-21T21:01:47.241Z,99573.66
2022-11-21T21:04:13.918Z,99577.75
2022-11-21T21:06:40.474Z,99583.00
2022-11-21T21:09:07.283Z,99583.09
2022-11-21T21:14:21.870Z,99598.59
2022-11-21T21:16:48.680Z,99592.88
2022-11-21T21:19:15.389Z,99592.84
2022-11-21T21:21:42.028Z,99599.66
2022-11-21T21:24:10.797Z,99601.97
2022-11-21T21:26:42.977Z,99598.81
2022-11-21T21:29:11.858Z,99604.78
2022-11-21T21:31:38.759Z,99604.53
2022-11-21T21:34:05.701Z,99600.75
2022-11-21T21:36:32.521Z,99605.78
2022-11-21T21:39:00.142Z,99610.69
2022-11-21T21:41:29.676Z,99607.03
2022-11-21T21:43:57.514Z,99606.25
2022-11-21T21:46:25.792Z,99611.28
2022-11-21T21:48:57.212Z,99613.41
2022-11-21T21:51:26.280Z,99608.81
2022-11-21T21:53:54.594Z,99606.13
2022-11-21T21:56:22.927Z,99607.00
2022-11-21T21:58:50.698Z,99606.78
2022-11-21T22:01:19.602Z,99616.81
2022-11-21T22:03:58.979Z,99606.78
2022-11-21T22:06:25.929Z,99603.22
2022-11-21T22:08:54.023Z,99602.47
2022-11-21T22:11:22.954Z,99605.78
2022-11-21T22:13:58.571Z,99607.97
2022-11-21T22:16:25.874Z,99598.38
2022-11-21T22:18:53.042Z,99603.22
2022-11-21T22:21:25.336Z,99607.78
2022-11-21T22:24:23.077Z,99608.53
2022-11-21T22:26:38.839Z,99611.31
2022-11-21T22:29:05.710Z,99613.09
2022-11-21T22:31:32.859Z,99608.22
2022-11-21T22:33:59.945Z,99612.50
2022-11-21T22:36:26.617Z,99610.06
2022-11-21T22:38:54.655Z,99610.81
2022-11-21T22:41:26.510Z,99616.81
2022-11-21T22:43:55.566Z,99626.09
2022-11-21T22:46:22.981Z,99624.97
2022-11-21T22:48:49.920Z,99629.19
2022-11-21T22:51:22.277Z,99634.97
2022-11-21T22:53:49.503Z,99635.50
2022-11-21T22:56:18.781Z,99640.94
2022-11-21T22:58:45.930Z,99640.13
2022-11-21T23:01:23.739Z,99641.97
2022-11-21T23:03:50.951Z,99641.25
2022-11-21T23:06:20.157Z,99650.09
2022-11-21T23:08:47.405Z,99645.97
2022-11-21T23:11:17.265Z,99653.53
2022-11-21T23:13:45.724Z,99653.63
2022-11-21T23:16:13.180Z,99660.31
2022-11-21T23:18:40.312Z,99661.00
2022-11-21T23:21:08.057Z,99670.00
2022-11-21T23:23:34.905Z,99669.13
2022-11-21T23:26:01.712Z,99667.06
2022-11-21T23:28:28.588Z,99660.97
2022-11-21T23:30:55.297Z,99662.13
2022-11-21T23:33:22.028Z,99664.91
2022-11-21T23:35:48.841Z,99668.03
2022-11-21T23:38:16.957Z,99672.34
2022-11-21T23:40:47.811Z,99660.16
2022-11-21T23:43:15.655Z,99671.19
2022-11-21T23:45:42.638Z,99671.00
2022-11-21T23:48:09.297Z,99672.78
2022-11-21T23:50:35.903Z,99668.44
2022-11-21T23:53:03.148Z,99677.56
2022-11-21T23:55:29.865Z,99682.56
2022-11-21T23:57:56.407Z,99680.91
